Hauptseite
METAR-TAF:

METAR-TAF

Flughäfen :

Gombe Lawanti International Airport

Gombe, Nigeria

Breite: 10-18-19N, Länge: 10-54-31E, Höhe: 505 m

METAR: fehlend

Zeit: 03:03 (02:03 UTC)

Prognose

Neuester Wetterbericht von vor 3 Stunden und 3 Minuten, um 23:00 UTC
Gültige Prognose vom 18 um 00 UTC bis 19 um 06 UTC
Wind 7 kt aus Süd/Südwest
Sichtweite 10 km oder mehr
Leicht bewölkt in der Höhe von 1900 ft, Kumulonimbus.
Gewitter
Übergehend zu
vom 18 um 01 UTC bis 18 um 03 UTC
Leicht bewölkt in der Höhe von 900 ft

TAF: DNGO 172300Z 1800/1906 20007KT 9999 TS FEW019CB BECMG 1801/1803 NSW FEW009

Wetterbeobachtungen und Prognosen von mehr als 4000 Flughäfen (METAR und TAF Bericht).

Die verfügbaren Stationen werden durch gelbe und rote Markierungen auf der Karte dargestellt.

Führen Sie die Maus auf sie, um den Namen der Station zu sehen.

Darauf klicken, um die Beobachtung von Wetterbeobachtungen und Prognosen zu sehen.

Um die Karte zu ändern : klicken Sie auf den grünen Tasten mit einem schwarzen Kreuz Zum Vergrößern, auf den grünen Button mit einem Gedankenstrich zu verkleinern, oder auf die grünen Pfeile für benachbarte Karten.


METAR-TAF: